createdAt,value
2017-11-22T00:00:17.129Z,0.00
2017-11-22T00:01:17.150Z,0.00
2017-11-22T00:02:17.160Z,0.00
2017-11-22T00:03:17.169Z,0.00
2017-11-22T00:04:17.190Z,0.00
2017-11-22T00:05:17.199Z,0.00
2017-11-22T00:06:17.221Z,0.00
2017-11-22T00:07:17.230Z,0.00
2017-11-22T00:08:17.260Z,0.00
2017-11-22T00:09:17.267Z,0.00
2017-11-22T00:10:17.287Z,0.00
2017-11-22T00:11:17.298Z,0.00
2017-11-22T00:12:17.313Z,0.00
2017-11-22T00:13:17.327Z,0.00
2017-11-22T00:14:17.348Z,0.00
2017-11-22T00:15:17.351Z,0.00
2017-11-22T00:16:17.372Z,0.00
2017-11-22T00:17:17.394Z,0.00
2017-11-22T00:18:17.410Z,0.00
2017-11-22T00:19:17.411Z,0.00
2017-11-22T00:20:17.432Z,0.00
2017-11-22T00:21:17.443Z,0.00
2017-11-22T00:22:17.463Z,0.00
2017-11-22T00:23:17.472Z,0.00
2017-11-22T00:24:17.494Z,0.00
2017-11-22T00:25:17.508Z,0.00
2017-11-22T00:26:17.529Z,0.00
2017-11-22T00:27:17.838Z,0.00
2017-11-22T00:28:17.560Z,0.00
2017-11-22T00:29:17.570Z,0.00
2017-11-22T00:30:17.592Z,0.00
2017-11-22T00:31:17.600Z,0.00
2017-11-22T00:32:17.613Z,0.00
2017-11-22T00:33:17.630Z,0.00
2017-11-22T00:34:17.644Z,0.00
2017-11-22T00:35:17.654Z,0.00
2017-11-22T00:36:17.675Z,0.00
2017-11-22T00:37:17.933Z,0.00
2017-11-22T00:38:17.727Z,0.00
2017-11-22T00:39:17.736Z,0.00
2017-11-22T00:40:17.734Z,0.00
2017-11-22T00:41:17.753Z,0.00
2017-11-22T00:42:17.766Z,0.00
2017-11-22T00:43:17.787Z,0.00
2017-11-22T00:44:17.796Z,0.00
2017-11-22T00:45:17.823Z,0.00
2017-11-22T00:46:17.825Z,0.00
2017-11-22T00:47:18.155Z,0.00
2017-11-22T00:48:17.864Z,0.00
2017-11-22T00:49:17.878Z,0.00
2017-11-22T00:50:17.892Z,0.00
2017-11-22T00:51:17.907Z,0.00
2017-11-22T00:52:17.917Z,0.00
2017-11-22T00:53:17.952Z,0.00
2017-11-22T00:54:17.954Z,0.00
2017-11-22T00:55:17.968Z,0.00
2017-11-22T00:56:17.984Z,0.00
2017-11-22T00:57:18.005Z,0.00
2017-11-22T00:58:18.020Z,0.00
2017-11-22T00:59:18.029Z,0.00
2017-11-22T01:00:18.037Z,0.00
2017-11-22T01:01:18.068Z,0.00
2017-11-22T01:02:18.074Z,0.00
2017-11-22T01:03:18.090Z,0.00
2017-11-22T01:04:18.111Z,0.00
2017-11-22T01:05:18.126Z,0.00
2017-11-22T01:06:18.148Z,0.00
2017-11-22T01:07:18.150Z,0.00
2017-11-22T01:08:18.179Z,0.00
2017-11-22T01:09:18.187Z,0.00
2017-11-22T01:10:18.208Z,0.00
2017-11-22T01:11:18.216Z,0.00
2017-11-22T01:12:18.540Z,0.00
2017-11-22T01:13:18.247Z,0.00
2017-11-22T01:14:18.263Z,0.00
2017-11-22T01:15:18.277Z,0.00
2017-11-22T01:16:18.304Z,0.00
2017-11-22T01:17:18.302Z,0.00
2017-11-22T01:18:18.330Z,0.00
2017-11-22T01:19:18.341Z,0.00
2017-11-22T01:20:18.360Z,0.00
2017-11-22T01:21:18.380Z,0.00
2017-11-22T01:22:18.384Z,0.00
2017-11-22T01:23:18.412Z,0.00
2017-11-22T01:24:18.421Z,0.00
2017-11-22T01:25:18.440Z,0.00
2017-11-22T01:26:18.448Z,0.00
2017-11-22T01:27:18.715Z,0.00
2017-11-22T01:28:18.484Z,0.00
2017-11-22T01:29:18.503Z,0.00
2017-11-22T01:30:18.521Z,0.00
2017-11-22T01:31:18.525Z,0.00
2017-11-22T01:32:18.553Z,0.00
2017-11-22T01:33:18.556Z,0.00
2017-11-22T01:34:18.596Z,0.00
2017-11-22T01:35:18.593Z,0.00
2017-11-22T01:36:18.616Z,0.00
2017-11-22T01:37:18.624Z,0.00
2017-11-22T01:38:18.645Z,0.00
2017-11-22T01:39:18.667Z,0.00
2017-11-22T01:40:18.676Z,0.00
2017-11-22T01:41:18.691Z,0.00
2017-11-22T01:42:18.955Z,0.00
2017-11-22T01:43:18.725Z,0.00
2017-11-22T01:44:18.729Z,0.00
2017-11-22T01:45:18.750Z,0.00
2017-11-22T01:46:18.780Z,0.00
2017-11-22T01:47:19.081Z,0.00
2017-11-22T01:48:18.801Z,0.00
2017-11-22T01:49:18.811Z,0.00
2017-11-22T01:50:18.838Z,0.00
2017-11-22T01:51:18.850Z,0.00
2017-11-22T01:52:18.875Z,0.00
2017-11-22T01:53:18.883Z,0.00
2017-11-22T01:54:18.899Z,0.00
2017-11-22T01:55:18.915Z,0.00
2017-11-22T01:56:18.929Z,0.00
2017-11-22T01:57:19.202Z,0.00
2017-11-22T01:58:18.954Z,0.00
2017-11-22T01:59:18.982Z,0.00
2017-11-22T02:00:19.007Z,0.00
2017-11-22T02:01:19.004Z,0.00
2017-11-22T02:02:19.328Z,0.00
2017-11-22T02:03:19.036Z,0.00
2017-11-22T02:04:19.065Z,0.00
2017-11-22T02:05:19.084Z,0.00
2017-11-22T02:06:19.087Z,0.00
2017-11-22T02:07:19.114Z,0.00
2017-11-22T02:08:19.124Z,0.00
2017-11-22T02:09:19.146Z,0.00
2017-11-22T02:10:19.174Z,0.00
2017-11-22T02:11:19.168Z,0.00
2017-11-22T02:12:19.197Z,0.00
2017-11-22T02:13:19.205Z,0.00
2017-11-22T02:14:19.221Z,0.00
2017-11-22T02:15:19.240Z,0.00
2017-11-22T02:16:19.261Z,0.00
2017-11-22T02:17:19.273Z,0.00
2017-11-22T02:18:19.288Z,0.00
2017-11-22T02:19:19.309Z,0.00
2017-11-22T02:20:19.318Z,0.00
2017-11-22T02:21:19.339Z,0.00
2017-11-22T02:22:19.642Z,0.00
2017-11-22T02:23:19.369Z,0.00
2017-11-22T02:24:19.385Z,0.00
2017-11-22T02:25:19.401Z,0.00
2017-11-22T02:26:19.421Z,0.00
2017-11-22T02:27:19.431Z,0.00
2017-11-22T02:28:19.455Z,0.00
2017-11-22T02:29:19.454Z,0.00
2017-11-22T02:30:19.478Z,0.00
2017-11-22T02:31:19.503Z,0.00
2017-11-22T02:32:19.506Z,0.00
2017-11-22T02:33:19.528Z,0.00
2017-11-22T02:34:19.543Z,0.00
2017-11-22T02:35:19.559Z,0.00
2017-11-22T02:36:19.580Z,0.00
2017-11-22T02:37:19.595Z,0.00
2017-11-22T02:38:19.616Z,0.00
2017-11-22T02:39:19.628Z,0.00
2017-11-22T02:40:19.649Z,0.00
2017-11-22T02:41:19.678Z,0.00
2017-11-22T02:42:19.671Z,0.00
2017-11-22T02:43:19.716Z,0.00
2017-11-22T02:44:19.699Z,0.00
2017-11-22T02:45:19.721Z,0.00
2017-11-22T02:46:19.748Z,0.00
2017-11-22T02:47:19.759Z,0.00
2017-11-22T02:48:19.782Z,0.00
2017-11-22T02:49:19.782Z,0.00
2017-11-22T02:50:19.811Z,0.00
2017-11-22T02:51:19.826Z,0.00
2017-11-22T02:52:20.141Z,0.00
2017-11-22T02:53:19.861Z,0.00
2017-11-22T02:54:19.866Z,0.00
2017-11-22T02:55:19.892Z,0.00
2017-11-22T02:56:19.913Z,0.00
2017-11-22T02:57:19.922Z,0.00
2017-11-22T02:58:19.943Z,0.00
2017-11-22T02:59:19.965Z,0.00
2017-11-22T03:00:19.975Z,0.00
2017-11-22T03:01:19.994Z,0.00
2017-11-22T03:02:19.998Z,0.00
2017-11-22T03:03:20.025Z,0.00
2017-11-22T03:04:20.050Z,0.00
2017-11-22T03:05:20.049Z,0.00
2017-11-22T03:06:20.077Z,0.00
2017-11-22T03:07:20.102Z,0.00
2017-11-22T03:08:20.119Z,0.00
2017-11-22T03:09:20.151Z,0.00
2017-11-22T03:10:20.138Z,0.00
2017-11-22T03:11:20.159Z,0.00
2017-11-22T03:12:20.174Z,0.00
2017-11-22T03:13:20.183Z,0.00
2017-11-22T03:14:20.205Z,0.00
2017-11-22T03:15:20.226Z,0.00
2017-11-22T03:16:20.234Z,0.00
2017-11-22T03:17:20.261Z,0.00
2017-11-22T03:18:20.277Z,0.00
2017-11-22T03:19:20.291Z,0.00
2017-11-22T03:20:20.308Z,0.00
2017-11-22T03:21:20.324Z,0.00
2017-11-22T03:22:20.343Z,0.00
2017-11-22T03:23:20.365Z,0.00
2017-11-22T03:24:20.388Z,0.00
2017-11-22T03:25:20.397Z,0.00
2017-11-22T03:26:20.417Z,0.00
2017-11-22T03:27:20.670Z,0.00
2017-11-22T03:28:20.448Z,0.00
2017-11-22T03:29:20.468Z,0.00
2017-11-22T03:30:20.484Z,0.00
2017-11-22T03:31:20.506Z,0.00
2017-11-22T03:32:20.820Z,0.00
2017-11-22T03:33:20.528Z,0.00
2017-11-22T03:34:20.550Z,0.00
2017-11-22T03:35:20.566Z,0.00
2017-11-22T03:36:20.575Z,0.00
2017-11-22T03:37:20.603Z,0.00
2017-11-22T03:38:20.617Z,0.00
2017-11-22T03:39:20.627Z,0.00
2017-11-22T03:40:20.653Z,0.00
2017-11-22T03:41:20.658Z,0.00
2017-11-22T03:42:20.684Z,0.00
2017-11-22T03:43:20.704Z,0.00
2017-11-22T03:44:20.710Z,0.00
2017-11-22T03:45:20.730Z,0.00
2017-11-22T03:46:20.757Z,0.00
2017-11-22T03:47:20.760Z,0.00
2017-11-22T03:48:20.783Z,0.00
2017-11-22T03:49:20.807Z,0.00
2017-11-22T03:50:20.818Z,0.00
2017-11-22T03:51:20.840Z,0.00
2017-11-22T03:52:21.154Z,0.00
2017-11-22T03:53:20.864Z,0.00
2017-11-22T03:54:20.890Z,0.00
2017-11-22T03:55:20.913Z,0.00
2017-11-22T03:56:20.916Z,0.00
2017-11-22T03:57:21.187Z,0.00
2017-11-22T03:58:20.958Z,0.00
2017-11-22T03:59:20.967Z,0.00
2017-11-22T04:00:20.995Z,0.00
2017-11-22T04:01:20.997Z,0.00
2017-11-22T04:02:21.024Z,0.00
2017-11-22T04:03:21.046Z,0.00
2017-11-22T04:04:21.049Z,0.00
2017-11-22T04:05:21.069Z,0.00
2017-11-22T04:06:21.093Z,0.00
2017-11-22T04:07:21.105Z,0.00
2017-11-22T04:08:21.122Z,0.00
2017-11-22T04:09:21.148Z,0.00
2017-11-22T04:10:21.152Z,0.00
2017-11-22T04:11:21.173Z,0.00
2017-11-22T04:12:21.202Z,0.00
2017-11-22T04:13:21.204Z,0.00
2017-11-22T04:14:21.225Z,0.00
2017-11-22T04:15:21.265Z,0.00
2017-11-22T04:16:21.262Z,0.00
2017-11-22T04:17:21.283Z,0.00
2017-11-22T04:18:21.286Z,0.00
2017-11-22T04:19:21.307Z,0.00
2017-11-22T04:20:21.328Z,0.00
2017-11-22T04:21:21.342Z,0.00
2017-11-22T04:22:21.365Z,0.00
2017-11-22T04:23:21.381Z,0.00
2017-11-22T04:24:21.395Z,0.00
2017-11-22T04:25:21.416Z,0.00
2017-11-22T04:26:21.437Z,0.00
2017-11-22T04:27:21.440Z,0.00
2017-11-22T04:28:21.462Z,0.00
2017-11-22T04:29:21.489Z,0.00
2017-11-22T04:30:21.499Z,0.00
2017-11-22T04:31:21.519Z,0.00
2017-11-22T04:32:21.791Z,0.00
2017-11-22T04:33:21.544Z,0.00
2017-11-22T04:34:21.573Z,0.00
2017-11-22T04:35:21.586Z,0.00
2017-11-22T04:36:21.594Z,0.00
2017-11-22T04:37:21.943Z,0.00
2017-11-22T04:38:21.626Z,0.00
2017-11-22T04:39:21.648Z,0.00
2017-11-22T04:40:21.670Z,0.00
2017-11-22T04:41:21.684Z,0.00
2017-11-22T04:42:21.956Z,0.00
2017-11-22T04:43:21.734Z,0.00
2017-11-22T04:44:21.729Z,0.00
2017-11-22T04:45:21.757Z,0.00
2017-11-22T04:46:21.765Z,0.00
2017-11-22T04:47:21.787Z,0.00
2017-11-22T04:48:21.801Z,0.00
2017-11-22T04:49:21.811Z,0.00
2017-11-22T04:50:21.839Z,0.00
2017-11-22T04:51:21.864Z,0.00
2017-11-22T04:52:21.862Z,0.00
2017-11-22T04:53:21.890Z,0.00
2017-11-22T04:54:21.912Z,0.00
2017-11-22T04:55:21.917Z,0.00
2017-11-22T04:56:21.939Z,0.00
2017-11-22T04:57:21.952Z,0.00
2017-11-22T04:58:21.967Z,0.00
2017-11-22T04:59:21.994Z,0.00
2017-11-22T05:00:21.998Z,0.00
2017-11-22T05:01:22.018Z,0.00
2017-11-22T05:02:22.039Z,0.00
2017-11-22T05:03:22.054Z,0.00
2017-11-22T05:04:22.075Z,0.00
2017-11-22T05:05:22.085Z,0.00
2017-11-22T05:06:22.107Z,0.00
2017-11-22T05:07:22.134Z,0.00
2017-11-22T05:08:22.137Z,0.00
2017-11-22T05:09:22.155Z,0.00
2017-11-22T05:10:22.177Z,0.00
2017-11-22T05:11:22.188Z,0.00
2017-11-22T05:12:22.460Z,0.00
2017-11-22T05:13:22.220Z,0.00
2017-11-22T05:14:22.246Z,0.00
2017-11-22T05:15:22.261Z,0.00
2017-11-22T05:16:22.271Z,0.00
2017-11-22T05:17:22.285Z,0.00
2017-11-22T05:18:22.306Z,0.00
2017-11-22T05:19:22.314Z,0.00
2017-11-22T05:20:22.343Z,0.00
2017-11-22T05:21:22.363Z,0.00
2017-11-22T05:22:22.623Z,0.00
2017-11-22T05:23:22.394Z,0.00
2017-11-22T05:24:22.404Z,0.00
2017-11-22T05:25:22.418Z,0.00
2017-11-22T05:26:22.447Z,0.00
2017-11-22T05:27:22.449Z,0.00
2017-11-22T05:28:22.471Z,0.00
2017-11-22T05:29:22.491Z,0.00
2017-11-22T05:30:22.514Z,0.00
2017-11-22T05:31:22.523Z,0.00
2017-11-22T05:32:22.849Z,0.00
2017-11-22T05:33:22.552Z,0.00
2017-11-22T05:34:22.574Z,0.00
2017-11-22T05:35:22.582Z,0.00
2017-11-22T05:36:22.609Z,0.00
2017-11-22T05:37:22.633Z,0.00
2017-11-22T05:38:22.640Z,0.00
2017-11-22T05:39:22.662Z,0.00
2017-11-22T05:40:22.672Z,0.00
2017-11-22T05:41:22.686Z,0.00
2017-11-22T05:42:22.713Z,0.00
2017-11-22T05:43:22.721Z,0.00
2017-11-22T05:44:22.769Z,0.00
2017-11-22T05:45:22.753Z,0.00
2017-11-22T05:46:22.774Z,0.00
2017-11-22T05:47:23.096Z,0.00
2017-11-22T05:48:22.803Z,0.00
2017-11-22T05:49:22.826Z,0.00
2017-11-22T05:50:22.830Z,0.00
2017-11-22T05:51:22.850Z,0.00
2017-11-22T05:52:23.128Z,0.00
2017-11-22T05:53:22.879Z,0.00
2017-11-22T05:54:22.911Z,0.00
2017-11-22T05:55:22.923Z,0.00
2017-11-22T05:56:22.938Z,0.00
2017-11-22T05:57:22.959Z,0.00
2017-11-22T05:58:22.975Z,0.00
2017-11-22T05:59:22.989Z,0.00
2017-11-22T06:00:23.014Z,0.00
2017-11-22T06:01:23.020Z,0.00
2017-11-22T06:02:23.285Z,0.00
2017-11-22T06:03:23.044Z,0.00
2017-11-22T06:04:23.065Z,0.00
2017-11-22T06:05:23.081Z,0.00
2017-11-22T06:06:23.094Z,0.00
2017-11-22T06:07:23.124Z,0.00
2017-11-22T06:08:23.132Z,0.00
2017-11-22T06:09:23.148Z,0.00
2017-11-22T06:10:23.162Z,4.00
2017-11-22T06:11:23.177Z,4.00
2017-11-22T06:12:23.199Z,4.00
2017-11-22T06:13:23.215Z,4.00
2017-11-22T06:14:23.233Z,4.00
2017-11-22T06:15:23.237Z,4.00
2017-11-22T06:16:23.260Z,4.00
2017-11-22T06:17:23.298Z,8.00
2017-11-22T06:18:23.296Z,4.00
2017-11-22T06:19:23.311Z,8.00
2017-11-22T06:20:23.326Z,8.00
2017-11-22T06:21:23.348Z,8.00
2017-11-22T06:22:23.361Z,12.00
2017-11-22T06:23:23.372Z,16.00
2017-11-22T06:24:23.393Z,12.00
2017-11-22T06:25:23.411Z,16.00
2017-11-22T06:26:23.428Z,20.00
2017-11-22T06:27:23.444Z,20.00
2017-11-22T06:28:23.453Z,24.00
2017-11-22T06:29:23.476Z,28.00
2017-11-22T06:30:23.490Z,32.00
2017-11-22T06:31:23.512Z,32.00
2017-11-22T06:32:23.770Z,36.00
2017-11-22T06:33:23.541Z,36.00
2017-11-22T06:34:23.557Z,36.00
2017-11-22T06:35:23.585Z,44.00
2017-11-22T06:36:23.587Z,40.00
2017-11-22T06:37:23.604Z,40.00
2017-11-22T06:38:23.625Z,36.00
2017-11-22T06:39:23.633Z,52.00
2017-11-22T06:40:23.648Z,64.00
2017-11-22T06:41:23.668Z,76.00
2017-11-22T06:42:23.935Z,60.00
2017-11-22T06:43:23.699Z,56.00
2017-11-22T06:44:23.707Z,60.00
2017-11-22T06:45:23.730Z,88.00
2017-11-22T06:46:23.752Z,116.00
2017-11-22T06:47:23.760Z,120.00
2017-11-22T06:48:23.781Z,104.00
2017-11-22T06:49:23.790Z,88.00
2017-11-22T06:50:23.812Z,88.00
2017-11-22T06:51:23.827Z,96.00
2017-11-22T06:52:23.841Z,128.00
2017-11-22T06:53:23.864Z,188.00
2017-11-22T06:54:23.877Z,196.00
2017-11-22T06:55:23.892Z,156.00
2017-11-22T06:56:23.907Z,140.00
2017-11-22T06:57:24.181Z,116.00
2017-11-22T06:58:23.955Z,112.00
2017-11-22T06:59:23.953Z,120.00
2017-11-22T07:00:23.995Z,168.00
2017-11-22T07:01:23.990Z,240.00
2017-11-22T07:02:24.011Z,320.00
2017-11-22T07:03:24.021Z,436.00
2017-11-22T07:04:24.037Z,456.00
2017-11-22T07:05:24.064Z,464.00
2017-11-22T07:06:24.067Z,464.00
2017-11-22T07:07:24.093Z,464.00
2017-11-22T07:08:24.096Z,428.00
2017-11-22T07:09:24.129Z,476.00
2017-11-22T07:10:24.139Z,468.00
2017-11-22T07:11:24.150Z,608.00
2017-11-22T07:12:24.175Z,700.00
2017-11-22T07:13:24.178Z,748.00
2017-11-22T07:14:24.198Z,804.00
2017-11-22T07:15:24.221Z,828.00
2017-11-22T07:16:24.239Z,772.00
2017-11-22T07:17:24.258Z,708.00
2017-11-22T07:18:24.260Z,684.00
2017-11-22T07:19:24.288Z,684.00
2017-11-22T07:20:24.308Z,728.00
2017-11-22T07:21:24.318Z,712.00
2017-11-22T07:22:24.589Z,784.00
2017-11-22T07:23:24.349Z,788.00
2017-11-22T07:24:24.370Z,828.00
2017-11-22T07:25:24.373Z,896.00
2017-11-22T07:26:24.393Z,984.00
2017-11-22T07:27:24.422Z,952.00
2017-11-22T07:28:24.424Z,1032.00
2017-11-22T07:29:24.452Z,1064.00
2017-11-22T07:30:24.456Z,1240.00
2017-11-22T07:31:24.482Z,1228.00
2017-11-22T07:32:24.496Z,1200.00
2017-11-22T07:33:24.511Z,1144.00
2017-11-22T07:34:24.536Z,1052.00
2017-11-22T07:35:24.536Z,920.00
2017-11-22T07:36:24.578Z,876.00
2017-11-22T07:37:24.575Z,860.00
2017-11-22T07:38:24.595Z,808.00
2017-11-22T07:39:24.608Z,756.00
2017-11-22T07:40:24.617Z,756.00
2017-11-22T07:41:24.639Z,824.00
2017-11-22T07:42:24.660Z,1000.00
2017-11-22T07:43:24.682Z,1228.00
2017-11-22T07:44:24.698Z,1300.00
2017-11-22T07:45:24.708Z,1216.00
2017-11-22T07:46:24.741Z,1212.00
2017-11-22T07:47:24.743Z,1216.00
2017-11-22T07:48:24.757Z,1360.00
2017-11-22T07:49:24.788Z,1488.00
2017-11-22T07:50:24.783Z,1648.00
2017-11-22T07:51:24.813Z,1744.00
2017-11-22T07:52:24.824Z,1972.00
2017-11-22T07:53:24.832Z,2136.00
2017-11-22T07:54:24.855Z,2108.00
2017-11-22T07:55:24.876Z,2280.00
2017-11-22T07:56:24.892Z,2720.00
2017-11-22T07:57:25.207Z,2920.00
2017-11-22T07:58:24.917Z,3012.00
2017-11-22T07:59:24.948Z,3032.00
2017-11-22T08:00:24.994Z,3004.00
2017-11-22T08:01:24.967Z,3064.00
2017-11-22T08:02:25.240Z,3236.00
2017-11-22T08:03:25.004Z,3460.00
2017-11-22T08:04:25.018Z,3736.00
2017-11-22T08:05:25.045Z,4000.00
2017-11-22T08:06:25.051Z,4176.00
2017-11-22T08:07:25.069Z,4236.00
2017-11-22T08:08:25.083Z,4232.00
2017-11-22T08:09:25.107Z,4216.00
2017-11-22T08:10:25.122Z,4236.00
2017-11-22T08:11:25.133Z,4260.00
2017-11-22T08:12:25.152Z,4264.00
2017-11-22T08:13:25.181Z,4232.00
2017-11-22T08:14:25.195Z,4276.00
2017-11-22T08:15:25.210Z,4288.00
2017-11-22T08:16:25.232Z,4216.00
2017-11-22T08:17:25.541Z,3968.00
2017-11-22T08:18:25.263Z,3748.00
2017-11-22T08:19:25.272Z,3720.00
2017-11-22T08:20:25.293Z,3804.00
2017-11-22T08:21:25.315Z,4064.00
2017-11-22T08:22:25.323Z,4352.00
2017-11-22T08:23:25.337Z,4364.00
2017-11-22T08:24:25.365Z,4256.00
2017-11-22T08:25:25.368Z,4300.00
2017-11-22T08:26:25.396Z,4408.00
2017-11-22T08:27:25.418Z,4568.00
2017-11-22T08:28:25.422Z,4776.00
2017-11-22T08:29:25.447Z,5092.00
2017-11-22T08:30:25.494Z,5204.00
2017-11-22T08:31:25.478Z,4836.00
2017-11-22T08:32:25.506Z,4264.00
2017-11-22T08:33:25.521Z,3824.00
2017-11-22T08:34:25.523Z,3612.00
2017-11-22T08:35:25.551Z,3612.00
2017-11-22T08:36:25.573Z,3644.00
2017-11-22T08:37:25.844Z,3744.00
2017-11-22T08:38:25.597Z,3836.00
2017-11-22T08:39:25.624Z,3896.00
2017-11-22T08:40:25.632Z,3976.00
2017-11-22T08:41:25.648Z,4044.00
2017-11-22T08:42:25.658Z,4120.00
2017-11-22T08:43:25.679Z,4052.00
2017-11-22T08:44:25.699Z,3768.00
2017-11-22T08:45:25.720Z,3368.00
2017-11-22T08:46:25.734Z,2920.00
2017-11-22T08:47:25.758Z,2576.00
2017-11-22T08:48:25.762Z,2556.00
2017-11-22T08:49:25.789Z,2624.00
2017-11-22T08:50:25.809Z,2616.00
2017-11-22T08:51:25.823Z,2648.00
2017-11-22T08:52:25.839Z,2716.00
2017-11-22T08:53:25.854Z,2964.00
2017-11-22T08:54:25.863Z,3360.00
2017-11-22T08:55:25.902Z,3468.00
2017-11-22T08:56:25.907Z,3452.00
2017-11-22T08:57:25.922Z,3592.00
2017-11-22T08:58:25.943Z,4040.00
2017-11-22T08:59:25.964Z,4248.00
2017-11-22T09:00:25.974Z,4396.00
2017-11-22T09:01:25.994Z,4300.00
2017-11-22T09:02:26.010Z,4248.00
2017-11-22T09:03:26.027Z,4432.00
2017-11-22T09:04:26.050Z,4868.00
2017-11-22T09:05:26.067Z,5144.00
2017-11-22T09:06:26.070Z,5076.00
2017-11-22T09:07:26.098Z,4908.00
2017-11-22T09:08:26.121Z,4788.00
2017-11-22T09:09:26.128Z,4812.00
2017-11-22T09:10:26.143Z,5488.00
2017-11-22T09:11:26.165Z,5852.00
2017-11-22T09:12:26.180Z,5880.00
2017-11-22T09:13:26.208Z,5840.00
2017-11-22T09:14:26.217Z,5796.00
2017-11-22T09:15:26.226Z,5568.00
2017-11-22T09:16:26.247Z,5596.00
2017-11-22T09:17:26.519Z,5784.00
2017-11-22T09:18:26.283Z,6100.00
2017-11-22T09:19:26.305Z,6568.00
2017-11-22T09:20:26.326Z,6912.00
2017-11-22T09:21:26.346Z,6972.00
2017-11-22T09:22:26.351Z,7044.00
2017-11-22T09:23:26.377Z,7284.00
2017-11-22T09:24:26.392Z,7624.00
2017-11-22T09:25:26.408Z,7820.00
2017-11-22T09:26:26.435Z,7796.00
2017-11-22T09:27:26.450Z,7756.00
2017-11-22T09:28:26.476Z,7844.00
2017-11-22T09:29:26.482Z,8212.00
2017-11-22T09:30:26.498Z,8664.00
2017-11-22T09:31:26.525Z,8936.00
2017-11-22T09:32:26.527Z,8524.00
2017-11-22T09:33:26.549Z,7564.00
2017-11-22T09:34:26.569Z,6740.00
2017-11-22T09:35:26.589Z,6344.00
2017-11-22T09:36:26.600Z,6668.00
2017-11-22T09:37:26.870Z,6572.00
2017-11-22T09:38:26.648Z,6412.00
2017-11-22T09:39:26.665Z,6260.00
2017-11-22T09:40:26.686Z,6384.00
2017-11-22T09:41:26.699Z,6248.00
2017-11-22T09:42:26.714Z,6224.00
2017-11-22T09:43:26.730Z,6228.00
2017-11-22T09:44:26.755Z,5772.00
2017-11-22T09:45:26.784Z,5412.00
2017-11-22T09:46:26.778Z,5632.00
2017-11-22T09:47:26.797Z,5672.00
2017-11-22T09:48:26.819Z,5556.00
2017-11-22T09:49:26.849Z,5608.00
2017-11-22T09:50:26.848Z,5664.00
2017-11-22T09:51:26.870Z,5524.00
2017-11-22T09:52:26.891Z,5380.00
2017-11-22T09:53:26.920Z,4984.00
2017-11-22T09:54:26.928Z,5168.00
2017-11-22T09:55:26.950Z,4992.00
2017-11-22T09:56:26.972Z,4548.00
2017-11-22T09:57:27.235Z,4488.00
2017-11-22T09:58:27.006Z,4396.00
2017-11-22T09:59:27.017Z,4540.00
2017-11-22T10:00:27.038Z,4616.00
2017-11-22T10:01:27.047Z,4440.00
2017-11-22T10:02:27.068Z,4504.00
2017-11-22T10:03:27.090Z,4324.00
2017-11-22T10:04:27.114Z,4324.00
2017-11-22T10:05:27.120Z,4432.00
2017-11-22T10:06:27.148Z,4464.00
2017-11-22T10:07:27.168Z,4532.00
2017-11-22T10:08:27.190Z,4748.00
2017-11-22T10:09:27.193Z,4836.00
2017-11-22T10:10:27.220Z,5220.00
2017-11-22T10:11:27.241Z,5912.00
2017-11-22T10:12:27.257Z,5952.00
2017-11-22T10:13:27.272Z,6012.00
2017-11-22T10:14:27.293Z,6460.00
2017-11-22T10:15:27.308Z,6892.00
2017-11-22T10:16:27.319Z,7508.00
2017-11-22T10:17:27.639Z,6996.00
2017-11-22T10:18:27.365Z,6308.00
2017-11-22T10:19:27.382Z,6000.00
2017-11-22T10:20:27.397Z,5792.00
2017-11-22T10:21:27.412Z,6068.00
2017-11-22T10:22:27.447Z,6552.00
2017-11-22T10:23:27.460Z,6268.00
2017-11-22T10:24:27.470Z,6300.00
2017-11-22T10:25:27.486Z,6376.00
2017-11-22T10:26:27.507Z,6812.00
2017-11-22T10:27:27.529Z,7296.00
2017-11-22T10:28:27.543Z,6996.00
2017-11-22T10:29:27.565Z,6500.00
2017-11-22T10:30:27.587Z,6440.00
2017-11-22T10:31:27.608Z,6440.00
2017-11-22T10:32:27.612Z,6272.00
2017-11-22T10:33:27.650Z,6116.00
2017-11-22T10:34:27.653Z,6120.00
2017-11-22T10:35:27.673Z,6264.00
2017-11-22T10:36:27.702Z,6652.00
2017-11-22T10:37:27.710Z,6912.00
2017-11-22T10:38:27.733Z,6588.00
2017-11-22T10:39:27.748Z,6212.00
2017-11-22T10:40:27.775Z,6000.00
2017-11-22T10:41:27.784Z,5772.00
2017-11-22T10:42:27.798Z,5620.00
2017-11-22T10:43:27.840Z,5716.00
2017-11-22T10:44:27.847Z,5492.00
2017-11-22T10:45:27.852Z,5384.00
2017-11-22T10:46:27.877Z,5472.00
2017-11-22T10:47:27.893Z,5664.00
2017-11-22T10:48:27.915Z,6068.00
2017-11-22T10:49:27.937Z,6216.00
2017-11-22T10:50:27.950Z,5928.00
2017-11-22T10:51:27.966Z,5472.00
2017-11-22T10:52:27.986Z,5012.00
2017-11-22T10:53:28.009Z,4640.00
2017-11-22T10:54:28.018Z,4780.00
2017-11-22T10:55:28.045Z,5088.00
2017-11-22T10:56:28.068Z,4844.00
2017-11-22T10:57:28.339Z,4528.00
2017-11-22T10:58:28.104Z,4432.00
2017-11-22T10:59:28.111Z,4680.00
2017-11-22T11:00:28.134Z,5084.00
2017-11-22T11:01:28.154Z,4992.00
2017-11-22T11:02:28.183Z,4692.00
2017-11-22T11:03:28.187Z,4716.00
2017-11-22T11:04:28.213Z,5000.00
2017-11-22T11:05:28.228Z,5108.00
2017-11-22T11:06:28.257Z,5132.00
2017-11-22T11:07:28.276Z,5020.00
2017-11-22T11:08:28.280Z,5216.00
2017-11-22T11:09:28.308Z,5584.00
2017-11-22T11:10:28.329Z,5876.00
2017-11-22T11:11:28.356Z,6160.00
2017-11-22T11:12:28.359Z,6444.00
2017-11-22T11:13:28.381Z,6416.00
2017-11-22T11:14:28.402Z,6812.00
2017-11-22T11:15:28.417Z,6988.00
2017-11-22T11:16:28.427Z,6912.00
2017-11-22T11:17:28.703Z,7136.00
2017-11-22T11:18:28.475Z,7156.00
2017-11-22T11:19:28.509Z,6564.00
2017-11-22T11:20:28.517Z,5796.00
2017-11-22T11:21:28.526Z,5236.00
2017-11-22T11:22:28.547Z,5272.00
2017-11-22T11:23:28.562Z,5512.00
2017-11-22T11:24:28.585Z,5696.00
2017-11-22T11:25:28.601Z,5532.00
2017-11-22T11:26:28.620Z,5196.00
2017-11-22T11:27:28.637Z,4964.00
2017-11-22T11:28:28.657Z,4536.00
2017-11-22T11:29:28.679Z,4428.00
2017-11-22T11:30:28.700Z,4560.00
2017-11-22T11:31:28.711Z,5160.00
2017-11-22T11:32:28.731Z,5668.00
2017-11-22T11:33:28.760Z,6192.00
2017-11-22T11:34:28.774Z,7044.00
2017-11-22T11:35:28.782Z,7440.00
2017-11-22T11:36:28.803Z,7088.00
2017-11-22T11:37:29.083Z,7204.00
2017-11-22T11:38:28.852Z,7772.00
2017-11-22T11:39:28.868Z,8108.00
2017-11-22T11:40:28.884Z,7956.00
2017-11-22T11:41:28.898Z,8232.00
2017-11-22T11:42:28.926Z,8228.00
2017-11-22T11:43:28.948Z,8052.00
2017-11-22T11:44:28.956Z,8180.00
2017-11-22T11:45:28.977Z,8428.00
2017-11-22T11:46:28.998Z,8340.00
2017-11-22T11:47:29.015Z,7804.00
2017-11-22T11:48:29.034Z,7476.00
2017-11-22T11:49:29.055Z,7624.00
2017-11-22T11:50:29.072Z,7240.00
2017-11-22T11:51:29.096Z,7128.00
2017-11-22T11:52:29.114Z,7140.00
2017-11-22T11:53:29.130Z,6776.00
2017-11-22T11:54:29.146Z,6436.00
2017-11-22T11:55:29.179Z,6300.00
2017-11-22T11:56:29.184Z,6500.00
2017-11-22T11:57:29.208Z,7060.00
2017-11-22T11:58:29.223Z,7184.00
2017-11-22T11:59:29.250Z,6828.00
2017-11-22T12:00:29.273Z,6076.00
2017-11-22T12:01:29.275Z,5460.00
2017-11-22T12:02:29.305Z,5260.00
2017-11-22T12:03:29.319Z,5268.00
2017-11-22T12:04:29.342Z,5572.00
2017-11-22T12:05:29.362Z,6012.00
2017-11-22T12:06:29.369Z,5968.00
2017-11-22T12:07:29.392Z,5748.00
2017-11-22T12:08:29.433Z,5652.00
2017-11-22T12:09:29.442Z,5600.00
2017-11-22T12:10:29.462Z,5408.00
2017-11-22T12:11:29.466Z,5220.00
2017-11-22T12:12:29.493Z,4944.00
2017-11-22T12:13:29.509Z,4840.00
2017-11-22T12:14:29.542Z,5188.00
2017-11-22T12:15:29.558Z,5428.00
2017-11-22T12:16:29.577Z,5904.00
2017-11-22T12:17:29.598Z,6160.00
2017-11-22T12:18:29.602Z,6136.00
2017-11-22T12:19:29.623Z,5996.00
2017-11-22T12:20:29.644Z,5836.00
2017-11-22T12:21:29.672Z,5668.00
2017-11-22T12:22:29.685Z,5608.00
2017-11-22T12:23:29.697Z,5444.00
2017-11-22T12:24:29.719Z,5228.00
2017-11-22T12:25:29.739Z,5100.00
2017-11-22T12:26:29.761Z,4960.00
2017-11-22T12:27:29.787Z,4956.00
2017-11-22T12:28:29.796Z,4988.00
2017-11-22T12:29:29.811Z,4920.00
2017-11-22T12:30:29.842Z,5288.00
2017-11-22T12:31:29.861Z,5496.00
2017-11-22T12:32:29.882Z,5576.00
2017-11-22T12:33:29.892Z,5564.00
2017-11-22T12:34:29.912Z,5540.00
2017-11-22T12:35:29.928Z,5548.00
2017-11-22T12:36:29.957Z,5572.00
2017-11-22T12:37:30.222Z,5552.00
2017-11-22T12:38:29.981Z,5560.00
2017-11-22T12:39:30.007Z,5532.00
2017-11-22T12:40:30.035Z,5444.00
2017-11-22T12:41:30.049Z,5408.00
2017-11-22T12:42:30.064Z,5452.00
2017-11-22T12:43:30.092Z,5404.00